createdAt,value
2022-08-19T00:02:00.424Z,6.28
2022-08-19T00:04:37.614Z,7.50
2022-08-19T00:07:07.076Z,6.70
2022-08-19T00:09:35.275Z,6.57
2022-08-19T00:12:02.736Z,7.07
2022-08-19T00:14:33.847Z,7.32
2022-08-19T00:17:04.058Z,7.57
2022-08-19T00:21:59.392Z,8.25
2022-08-19T00:24:28.357Z,6.40
2022-08-19T00:26:58.202Z,6.43
2022-08-19T00:29:45.859Z,6.07
2022-08-19T00:32:20.250Z,6.25
2022-08-19T00:34:47.897Z,5.47
2022-08-19T00:37:15.187Z,6.70
2022-08-19T00:39:43.053Z,5.47
2022-08-19T00:42:10.467Z,6.53
2022-08-19T00:44:38.023Z,6.57
2022-08-19T00:47:06.486Z,7.93
2022-08-19T00:49:52.381Z,6.18
2022-08-19T00:52:26.895Z,5.88
2022-08-19T00:54:55.125Z,6.20
2022-08-19T00:57:29.417Z,5.55
2022-08-19T01:00:02.635Z,5.68
2022-08-19T01:02:32.070Z,5.75
2022-08-19T01:05:01.192Z,5.00
2022-08-19T01:07:29.301Z,5.78
2022-08-19T01:10:10.409Z,5.28
2022-08-19T01:12:39.104Z,5.57
2022-08-19T01:15:10.061Z,5.88
2022-08-19T01:17:39.586Z,6.13
2022-08-19T01:20:10.570Z,7.17
2022-08-19T01:22:52.182Z,5.22
2022-08-19T01:25:25.048Z,5.18
2022-08-19T01:27:54.894Z,6.78
2022-08-19T01:30:26.388Z,6.03
2022-08-19T01:32:55.823Z,6.90
2022-08-19T01:35:25.371Z,4.85
2022-08-19T01:38:09.541Z,5.45
2022-08-19T01:40:40.567Z,5.72
2022-08-19T01:43:07.968Z,5.47
2022-08-19T01:45:36.167Z,5.88
2022-08-19T01:48:04.357Z,6.63
2022-08-19T01:50:33.965Z,6.68
2022-08-19T01:53:06.761Z,5.70
2022-08-19T01:55:41.203Z,7.40
2022-08-19T01:58:14.570Z,6.32
2022-08-19T02:00:43.148Z,7.03
2022-08-19T02:03:12.532Z,5.85
2022-08-19T02:05:41.174Z,6.40
2022-08-19T02:08:09.909Z,6.28
2022-08-19T02:10:42.111Z,5.95
2022-08-19T02:13:10.252Z,5.93
2022-08-19T02:15:38.654Z,5.40
2022-08-19T02:18:06.546Z,5.00
2022-08-19T02:20:33.924Z,5.28
2022-08-19T02:23:02.369Z,5.50
2022-08-19T02:25:29.911Z,6.07
2022-08-19T02:28:00.014Z,6.43
2022-08-19T02:30:29.297Z,5.22
2022-08-19T02:32:57.321Z,6.00
2022-08-19T02:35:25.600Z,6.28
2022-08-19T02:38:11.806Z,6.20
2022-08-19T02:40:39.212Z,5.85
2022-08-19T02:43:09.574Z,5.72
2022-08-19T02:45:40.569Z,5.68
2022-08-19T02:58:32.434Z,7.28
2022-08-19T03:01:00.185Z,7.10
2022-08-19T03:03:28.657Z,6.25
2022-08-19T03:06:15.827Z,6.03
2022-08-19T03:08:45.487Z,6.30
2022-08-19T03:11:21.152Z,7.23
2022-08-19T03:13:50.185Z,5.22
2022-08-19T03:16:18.988Z,5.93
2022-08-19T03:18:46.763Z,6.10
2022-08-19T03:21:25.030Z,7.60
2022-08-19T03:23:56.224Z,5.22
2022-08-19T03:26:23.741Z,5.35
2022-08-19T03:28:58.159Z,5.95
2022-08-19T03:31:41.940Z,5.32
2022-08-19T03:34:19.148Z,6.88
2022-08-19T03:36:47.729Z,6.47
2022-08-19T03:39:15.793Z,5.15
2022-08-19T03:41:48.119Z,6.82
2022-08-19T03:44:19.583Z,6.05
2022-08-19T03:46:50.611Z,6.40
2022-08-19T03:49:19.749Z,6.70
2022-08-19T03:51:49.467Z,7.38
2022-08-19T03:54:20.355Z,6.80
2022-08-19T03:56:49.791Z,5.95
2022-08-19T03:59:27.068Z,6.97
2022-08-19T04:01:56.843Z,6.65
2022-08-19T04:04:25.480Z,7.10
2022-08-19T04:06:57.456Z,4.72
2022-08-19T04:09:25.795Z,6.63
2022-08-19T04:11:56.878Z,5.28
2022-08-19T04:14:27.002Z,5.30
2022-08-19T04:16:55.355Z,6.15
2022-08-19T04:19:24.091Z,6.35
2022-08-19T04:21:53.876Z,5.57
2022-08-19T04:24:22.661Z,6.22
2022-08-19T04:26:51.675Z,5.30
2022-08-19T04:29:23.312Z,6.53
2022-08-19T04:31:51.768Z,6.57
2022-08-19T04:34:25.118Z,5.68
2022-08-19T04:36:56.398Z,6.25
2022-08-19T04:39:47.537Z,6.20
2022-08-19T04:42:34.388Z,5.68
2022-08-19T04:45:02.473Z,6.03
2022-08-19T04:47:48.306Z,5.35
2022-08-19T04:50:17.830Z,5.30
2022-08-19T04:52:46.392Z,5.70
2022-08-19T04:55:14.834Z,5.53
2022-08-19T04:57:52.622Z,5.68
2022-08-19T05:00:20.879Z,5.13
2022-08-19T05:02:49.547Z,4.88
2022-08-19T05:05:18.475Z,5.85
2022-08-19T05:07:46.101Z,4.88
2022-08-19T05:10:13.939Z,5.97
2022-08-19T05:12:41.277Z,5.50
2022-08-19T05:15:12.626Z,6.45
2022-08-19T05:18:00.051Z,5.82
2022-08-19T05:20:45.829Z,5.10
2022-08-19T05:23:20.546Z,5.30
2022-08-19T05:25:50.495Z,5.82
2022-08-19T05:28:19.586Z,7.22
2022-08-19T05:30:49.474Z,4.97
2022-08-19T05:33:16.844Z,6.13
2022-08-19T05:35:45.047Z,5.30
2022-08-19T05:38:13.834Z,5.85
2022-08-19T05:40:41.767Z,6.13
2022-08-19T05:43:10.190Z,6.30
2022-08-19T05:45:43.238Z,6.75
2022-08-19T05:48:14.831Z,5.97
2022-08-19T05:50:42.866Z,6.20
2022-08-19T05:53:10.211Z,5.95
2022-08-19T05:55:39.617Z,6.18
2022-08-19T05:58:08.729Z,4.85
2022-08-19T06:00:37.663Z,5.10
2022-08-19T06:03:12.603Z,4.63
2022-08-19T06:05:52.117Z,4.50
2022-08-19T06:08:34.432Z,5.28
2022-08-19T06:11:20.737Z,4.45
2022-08-19T06:13:59.826Z,4.75
2022-08-19T06:16:29.035Z,5.07
2022-08-19T06:18:58.454Z,4.55
2022-08-19T06:21:28.798Z,4.30
2022-08-19T06:26:26.118Z,4.47
2022-08-19T06:28:53.834Z,4.13
2022-08-19T06:31:28.040Z,5.18
2022-08-19T06:33:56.417Z,4.38
2022-08-19T06:36:33.074Z,5.60
2022-08-19T06:39:11.621Z,6.30
2022-08-19T06:41:51.175Z,6.22
2022-08-19T06:44:23.023Z,4.53
2022-08-19T06:46:55.180Z,5.43
2022-08-19T06:49:24.311Z,6.07
2022-08-19T06:51:53.431Z,5.35
2022-08-19T06:57:04.934Z,5.07
2022-08-19T06:59:36.386Z,5.30
2022-08-19T07:02:07.683Z,4.97
2022-08-19T07:04:36.985Z,5.47
2022-08-19T07:07:30.274Z,5.80
2022-08-19T07:10:07.692Z,4.85
2022-08-19T07:12:38.349Z,4.50
2022-08-19T07:15:12.005Z,4.70
2022-08-19T07:17:41.998Z,4.70
2022-08-19T07:20:11.375Z,5.47
2022-08-19T07:22:40.663Z,5.23
2022-08-19T07:25:10.698Z,5.72
2022-08-19T07:30:11.663Z,5.30
2022-08-19T07:32:41.206Z,5.38
2022-08-19T07:35:10.795Z,5.47
2022-08-19T07:37:39.355Z,5.43
2022-08-19T07:40:09.295Z,4.90
2022-08-19T07:42:37.891Z,6.20
2022-08-19T07:45:08.132Z,5.03
2022-08-19T07:50:20.960Z,4.05
2022-08-19T07:52:51.071Z,5.00
2022-08-19T07:55:42.262Z,4.43
2022-08-19T07:58:16.069Z,4.93
2022-08-19T08:00:45.293Z,4.82
2022-08-19T08:03:13.340Z,4.47
2022-08-19T08:05:59.685Z,4.60
2022-08-19T08:08:48.226Z,4.20
2022-08-19T08:11:21.749Z,4.50
2022-08-19T08:14:01.506Z,3.80
2022-08-19T08:16:39.501Z,3.63
2022-08-19T08:19:25.456Z,3.50
2022-08-19T08:21:56.247Z,3.67
2022-08-19T08:24:28.702Z,3.45
2022-08-19T08:26:57.545Z,3.78
2022-08-19T08:29:26.912Z,2.92
2022-08-19T08:32:03.064Z,2.90
2022-08-19T08:34:30.594Z,3.30
2022-08-19T08:36:58.403Z,3.28
2022-08-19T08:39:25.675Z,2.40
2022-08-19T08:42:16.791Z,2.90
2022-08-19T08:45:08.712Z,2.88
2022-08-19T08:47:42.261Z,2.67
2022-08-19T08:50:18.393Z,2.88
2022-08-19T08:52:53.408Z,3.13
2022-08-19T08:55:28.071Z,2.83
2022-08-19T08:58:17.744Z,2.70
2022-08-19T09:00:48.545Z,2.83
2022-08-19T09:03:36.745Z,3.08
2022-08-19T09:06:17.175Z,4.03
2022-08-19T09:08:47.843Z,2.72
2022-08-19T09:11:42.045Z,2.63
2022-08-19T09:14:52.937Z,2.70
2022-08-19T09:17:36.257Z,2.70
2022-08-19T09:20:23.502Z,2.85
2022-08-19T09:22:53.950Z,2.45
2022-08-19T09:25:26.983Z,2.90
2022-08-19T09:28:03.019Z,2.45
2022-08-19T09:30:42.889Z,2.83
2022-08-19T09:33:10.647Z,2.95
2022-08-19T09:35:50.030Z,2.78
2022-08-19T09:38:22.607Z,2.55
2022-08-19T09:40:51.569Z,2.55
2022-08-19T09:43:32.898Z,2.67
2022-08-19T09:46:01.800Z,2.45
2022-08-19T09:48:29.185Z,2.10
2022-08-19T09:51:03.783Z,2.85
2022-08-19T09:53:32.423Z,2.78
2022-08-19T09:56:04.163Z,2.67
2022-08-19T10:01:02.037Z,2.65
2022-08-19T10:03:31.388Z,2.55
2022-08-19T10:06:00.754Z,2.90
2022-08-19T10:08:34.060Z,2.73
2022-08-19T10:11:28.209Z,2.30
2022-08-19T10:13:51.478Z,2.58
2022-08-19T10:16:30.247Z,3.20
2022-08-19T10:18:59.275Z,2.50
2022-08-19T10:21:29.345Z,2.85
2022-08-19T10:24:02.737Z,2.30
2022-08-19T10:26:33.131Z,2.28
2022-08-19T10:29:01.402Z,2.38
2022-08-19T10:32:00.307Z,2.00
2022-08-19T10:34:27.613Z,2.30
2022-08-19T10:37:00.910Z,2.50
2022-08-19T10:39:31.705Z,2.30
2022-08-19T10:42:39.232Z,2.20
2022-08-19T10:45:11.871Z,2.42
2022-08-19T10:47:39.308Z,2.15
2022-08-19T10:50:28.715Z,2.67
2022-08-19T10:52:58.383Z,1.85
2022-08-19T10:55:44.729Z,2.55
2022-08-19T10:58:24.806Z,2.40
2022-08-19T11:03:25.942Z,2.10
2022-08-19T11:06:08.302Z,2.50
2022-08-19T11:08:38.826Z,2.72
2022-08-19T11:11:07.979Z,2.00
2022-08-19T11:13:40.067Z,2.45
2022-08-19T11:16:15.162Z,2.33
2022-08-19T11:18:49.434Z,2.50
2022-08-19T11:21:22.925Z,2.20
2022-08-19T11:23:53.240Z,2.08
2022-08-19T11:26:26.001Z,2.17
2022-08-19T11:28:56.494Z,2.53
2022-08-19T11:31:30.094Z,2.38
2022-08-19T11:34:05.733Z,2.53
2022-08-19T11:36:35.601Z,2.40
2022-08-19T11:39:06.260Z,2.23
2022-08-19T11:41:34.580Z,2.42
2022-08-19T11:44:04.548Z,2.40
2022-08-19T11:46:33.061Z,3.13
2022-08-19T11:49:02.915Z,3.00
2022-08-19T11:51:31.230Z,2.70
2022-08-19T11:54:00.600Z,2.50
2022-08-19T11:56:29.473Z,2.65
2022-08-19T11:58:57.964Z,2.55
2022-08-19T12:01:27.221Z,2.65
2022-08-19T12:03:56.460Z,2.40
2022-08-19T12:06:29.592Z,2.47
2022-08-19T12:08:58.499Z,3.10
2022-08-19T12:11:26.473Z,2.75
2022-08-19T12:13:54.713Z,2.72
2022-08-19T12:16:24.992Z,3.05
2022-08-19T12:18:52.720Z,2.47
2022-08-19T12:21:24.277Z,2.60
2022-08-19T12:23:55.708Z,2.25
2022-08-19T12:26:24.520Z,2.83
2022-08-19T12:28:54.152Z,2.30
2022-08-19T12:31:21.675Z,1.80
2022-08-19T12:33:49.138Z,2.60
2022-08-19T12:36:19.077Z,2.63
2022-08-19T12:38:47.900Z,2.67
2022-08-19T12:41:19.413Z,2.40
2022-08-19T12:43:50.257Z,2.58
2022-08-19T12:46:18.403Z,2.50
2022-08-19T12:48:46.835Z,2.85
2022-08-19T12:51:20.630Z,2.65
2022-08-19T12:53:48.789Z,2.72
2022-08-19T12:56:21.091Z,3.10
2022-08-19T12:58:52.820Z,2.45
2022-08-19T13:01:23.096Z,2.80
2022-08-19T13:03:55.008Z,2.97
2022-08-19T13:06:22.646Z,3.45
2022-08-19T13:08:50.273Z,3.00
2022-08-19T13:11:21.206Z,3.00
2022-08-19T13:13:51.498Z,2.90
2022-08-19T13:16:21.309Z,2.63
2022-08-19T13:18:53.008Z,3.17
2022-08-19T13:21:22.603Z,2.92
2022-08-19T13:26:18.885Z,2.45
2022-08-19T13:29:05.207Z,3.00
2022-08-19T13:31:53.472Z,3.00
2022-08-19T13:34:29.019Z,3.25
2022-08-19T13:36:59.362Z,2.60
2022-08-19T13:39:26.977Z,2.70
2022-08-19T13:41:54.328Z,2.70
2022-08-19T13:44:21.801Z,3.13
2022-08-19T13:46:54.135Z,2.72
2022-08-19T13:49:21.833Z,2.88
2022-08-19T13:51:49.245Z,3.38
2022-08-19T13:54:16.612Z,3.15
2022-08-19T13:56:46.032Z,3.55
2022-08-19T13:59:13.773Z,2.92
2022-08-19T14:01:42.400Z,2.75
2022-08-19T14:04:10.331Z,2.83
2022-08-19T14:06:37.933Z,3.17
2022-08-19T14:09:06.053Z,2.67
2022-08-19T14:11:33.736Z,2.63
2022-08-19T14:14:01.612Z,3.28
2022-08-19T14:16:28.953Z,2.47
2022-08-19T14:18:56.248Z,2.75
2022-08-19T14:21:26.256Z,2.47
2022-08-19T14:23:54.566Z,2.90
2022-08-19T14:26:23.674Z,3.30
2022-08-19T14:28:53.273Z,2.55
2022-08-19T14:31:28.986Z,2.85
2022-08-19T14:33:57.877Z,2.70
2022-08-19T14:36:25.130Z,2.85
2022-08-19T14:38:52.536Z,2.92
2022-08-19T14:41:22.446Z,2.55
2022-08-19T14:43:52.604Z,2.50
2022-08-19T14:48:52.583Z,2.58
2022-08-19T14:51:22.360Z,2.42
2022-08-19T14:53:51.140Z,3.15
2022-08-19T14:56:22.506Z,3.25
2022-08-19T14:58:52.833Z,2.50
2022-08-19T15:01:22.719Z,2.80
2022-08-19T15:03:50.730Z,2.35
2022-08-19T15:06:18.463Z,2.63
2022-08-19T15:08:46.076Z,3.08
2022-08-19T15:11:17.035Z,2.85
2022-08-19T15:13:47.543Z,2.75
2022-08-19T15:16:42.890Z,3.17
2022-08-19T15:19:15.516Z,3.22
2022-08-19T15:21:42.999Z,2.70
2022-08-19T15:24:13.261Z,4.32
2022-08-19T15:26:43.863Z,2.92
2022-08-19T15:29:14.104Z,2.88
2022-08-19T15:31:41.568Z,2.53
2022-08-19T15:34:10.009Z,2.60
2022-08-19T15:36:38.262Z,2.78
2022-08-19T15:39:10.137Z,2.70
2022-08-19T15:41:39.652Z,2.97
2022-08-19T15:44:10.911Z,2.75
2022-08-19T15:46:40.593Z,2.70
2022-08-19T15:49:09.397Z,2.97
2022-08-19T15:51:40.224Z,3.15
2022-08-19T15:54:10.963Z,2.75
2022-08-19T15:56:58.469Z,3.10
2022-08-19T15:59:47.153Z,2.90
2022-08-19T16:02:37.371Z,2.85
2022-08-19T16:05:28.412Z,3.00
2022-08-19T16:07:56.337Z,2.55
2022-08-19T16:10:26.850Z,3.17
2022-08-19T16:12:57.687Z,2.75
2022-08-19T16:15:28.577Z,2.40
2022-08-19T16:18:03.139Z,2.20
2022-08-19T16:20:31.947Z,2.33
2022-08-19T16:23:03.873Z,2.50
2022-08-19T16:25:31.336Z,2.53
2022-08-19T16:28:06.583Z,2.20
2022-08-19T16:30:38.655Z,2.75
2022-08-19T16:33:07.248Z,2.80
2022-08-19T16:35:35.331Z,2.40
2022-08-19T16:38:02.934Z,2.35
2022-08-19T16:40:30.354Z,2.17
2022-08-19T16:42:59.025Z,2.15
2022-08-19T16:45:26.883Z,2.60
2022-08-19T16:47:54.915Z,1.73
2022-08-19T16:50:33.548Z,2.60
2022-08-19T16:53:10.073Z,2.17
2022-08-19T16:55:37.925Z,2.40
2022-08-19T16:58:05.902Z,2.33
2022-08-19T17:00:34.783Z,2.00
2022-08-19T17:03:14.667Z,2.13
2022-08-19T17:05:48.040Z,2.20
2022-08-19T17:08:19.380Z,4.00
2022-08-19T17:11:07.863Z,15.90
2022-08-19T17:13:36.138Z,7.60
2022-08-19T17:16:04.194Z,5.22
2022-08-19T17:18:33.748Z,6.55
2022-08-19T17:21:03.087Z,15.90
2022-08-19T17:23:43.341Z,11.00
2022-08-19T17:26:18.159Z,3.55
2022-08-19T17:28:51.429Z,3.10
2022-08-19T17:33:48.437Z,2.78
2022-08-19T17:36:24.999Z,2.67
2022-08-19T17:38:58.017Z,2.30
2022-08-19T17:41:27.063Z,2.22
2022-08-19T17:43:55.208Z,2.72
2022-08-19T17:46:22.815Z,2.50
2022-08-19T17:48:54.775Z,2.10
2022-08-19T17:51:40.839Z,2.38
2022-08-19T17:54:13.018Z,2.00
2022-08-19T17:56:41.997Z,2.08
2022-08-19T17:59:13.763Z,2.35
2022-08-19T18:01:53.310Z,2.20
2022-08-19T18:04:23.385Z,2.30
2022-08-19T18:06:52.962Z,2.13
2022-08-19T18:09:42.990Z,2.35
2022-08-19T18:12:18.020Z,1.88
2022-08-19T18:14:46.778Z,2.25
2022-08-19T18:17:18.021Z,2.50
2022-08-19T18:19:47.911Z,2.63
2022-08-19T18:22:28.542Z,2.58
2022-08-19T18:24:59.007Z,2.38
2022-08-19T18:27:28.048Z,2.80
2022-08-19T18:30:00.360Z,2.33
2022-08-19T18:32:34.527Z,2.70
2022-08-19T18:35:11.644Z,2.78
2022-08-19T18:37:40.466Z,2.10
2022-08-19T18:40:29.933Z,2.30
2022-08-19T18:43:15.938Z,2.53
2022-08-19T18:46:03.033Z,2.35
2022-08-19T18:48:49.359Z,2.50
2022-08-19T18:51:18.333Z,2.33
2022-08-19T18:53:48.887Z,2.85
2022-08-19T18:56:19.921Z,2.53
2022-08-19T18:58:47.817Z,2.60
2022-08-19T19:01:35.864Z,2.20
2022-08-19T19:04:10.762Z,2.97
2022-08-19T19:06:41.123Z,2.60
2022-08-19T19:11:44.814Z,3.03
2022-08-19T19:14:27.695Z,2.33
2022-08-19T19:17:05.785Z,2.65
2022-08-19T19:19:34.431Z,2.47
2022-08-19T19:22:04.775Z,2.28
2022-08-19T19:27:06.978Z,2.28
2022-08-19T19:29:38.529Z,3.30
2022-08-19T19:32:08.457Z,3.20
2022-08-19T19:34:39.408Z,2.40
2022-08-19T19:37:07.135Z,3.33
2022-08-19T19:39:46.173Z,2.20
2022-08-19T19:42:20.054Z,2.85
2022-08-19T19:44:57.708Z,2.15
2022-08-19T19:47:28.284Z,2.40
2022-08-19T19:50:14.287Z,2.10
2022-08-19T19:52:45.899Z,3.05
2022-08-19T19:55:18.133Z,1.70
2022-08-19T19:57:47.493Z,1.60
2022-08-19T20:00:24.292Z,1.83
2022-08-19T20:02:54.185Z,1.58
2022-08-19T20:05:22.738Z,2.05
2022-08-19T20:08:11.314Z,2.10
2022-08-19T20:10:40.574Z,1.67
2022-08-19T20:13:13.681Z,1.80
2022-08-19T20:15:43.712Z,1.50
2022-08-19T20:18:14.663Z,2.38
2022-08-19T20:20:43.938Z,1.50
2022-08-19T20:23:11.305Z,1.70
2022-08-19T20:25:39.820Z,1.40
2022-08-19T20:28:07.738Z,1.70
2022-08-19T20:30:39.572Z,1.60
2022-08-19T20:33:14.748Z,1.65
2022-08-19T20:35:44.564Z,1.35
2022-08-19T20:38:11.924Z,1.15
2022-08-19T20:40:41.280Z,1.20
2022-08-19T20:43:13.412Z,1.20
2022-08-19T20:45:41.099Z,1.60
2022-08-19T20:48:10.939Z,1.50
2022-08-19T20:50:38.855Z,1.50
2022-08-19T20:53:14.357Z,1.30
2022-08-19T20:55:45.069Z,1.50
2022-08-19T20:58:13.605Z,1.33
2022-08-19T21:00:46.021Z,1.40
2022-08-19T21:03:19.291Z,1.30
2022-08-19T21:05:47.004Z,1.55
2022-08-19T21:08:18.416Z,2.10
2022-08-19T21:10:50.829Z,1.90
2022-08-19T21:13:20.036Z,2.25
2022-08-19T21:15:49.064Z,2.20
2022-08-19T21:18:19.271Z,1.38
2022-08-19T21:20:48.199Z,1.40
2022-08-19T21:23:20.580Z,1.50
2022-08-19T21:25:54.751Z,1.42
2022-08-19T21:28:29.967Z,1.50
2022-08-19T21:31:06.165Z,1.30
2022-08-19T21:33:33.978Z,1.48
2022-08-19T21:36:03.470Z,1.30
2022-08-19T21:38:31.624Z,1.52
2022-08-19T21:41:04.286Z,1.40
2022-08-19T21:43:38.946Z,1.55
2022-08-19T21:46:08.043Z,1.30
2022-08-19T21:48:37.315Z,1.27
2022-08-19T21:51:05.614Z,1.25
2022-08-19T21:53:34.554Z,1.50
2022-08-19T21:56:03.702Z,1.20
2022-08-19T21:58:31.687Z,1.20
2022-08-19T22:01:02.097Z,1.40
2022-08-19T22:03:31.108Z,1.52
2022-08-19T22:05:59.106Z,1.30
2022-08-19T22:08:27.431Z,2.03
2022-08-19T22:10:56.132Z,1.75
2022-08-19T22:13:26.591Z,1.50
2022-08-19T22:15:55.404Z,1.42
2022-08-19T22:18:23.215Z,1.35
2022-08-19T22:20:50.749Z,1.52
2022-08-19T22:23:19.156Z,1.40
2022-08-19T22:25:48.709Z,1.70
2022-08-19T22:28:27.864Z,1.80
2022-08-19T22:30:56.277Z,1.60
2022-08-19T22:33:27.802Z,1.75
2022-08-19T22:35:55.570Z,2.03
2022-08-19T22:38:24.172Z,1.60
2022-08-19T22:40:53.145Z,1.60
2022-08-19T22:43:26.298Z,2.03
2022-08-19T22:45:55.168Z,1.50
2022-08-19T22:48:27.420Z,1.77
2022-08-19T22:51:16.560Z,1.38
2022-08-19T22:53:47.519Z,1.70
2022-08-19T22:56:18.421Z,1.83
2022-08-19T22:58:46.888Z,1.50
2022-08-19T23:01:27.418Z,1.80
2022-08-19T23:03:58.583Z,1.50
2022-08-19T23:06:27.957Z,1.48
2022-08-19T23:09:05.236Z,1.80
2022-08-19T23:11:38.258Z,1.80
2022-08-19T23:14:11.535Z,1.60
2022-08-19T23:16:39.417Z,1.73
2022-08-19T23:19:08.934Z,1.73
2022-08-19T23:21:36.442Z,1.83
2022-08-19T23:24:04.584Z,1.55
2022-08-19T23:26:35.718Z,1.80
2022-08-19T23:29:23.179Z,1.77
2022-08-19T23:31:50.641Z,2.20
2022-08-19T23:34:18.583Z,1.85
2022-08-19T23:36:46.458Z,2.53
2022-08-19T23:39:14.620Z,2.33
2022-08-19T23:41:42.303Z,1.50
2022-08-19T23:44:14.593Z,1.70
2022-08-19T23:46:55.363Z,1.63
2022-08-19T23:49:25.204Z,1.50
2022-08-19T23:51:54.461Z,1.83
2022-08-19T23:54:22.142Z,1.52
2022-08-19T23:57:01.791Z,1.77
2022-08-19T23:59:29.416Z,1.85
